Time;durP1;ratioP1;P1;durP2;ratioP2;P2;SDS_P1;SDS_P2;PMS_P1;PMS_P2;Temp;Humidity;BMP_temperature;BMP_pressure;BME280_temperature;BME280_humidity;BME280_pressure;Samples;Min_cycle;Max_cycle;Signal;HPM_P1;HPM_P2
2022/01/17 00:00:13;;;;;;;;;;;;;;;27.56;58.22;97352.95;624645;227;66455;-66
2022/01/17 00:02:41;;;;;;;;;;;;;;;27.57;57.54;97348.34;624612;227;68612;-66
2022/01/17 00:05:09;;;;;;;;;;;;;;;27.55;57.20;97345.14;624707;227;64866;-67
2022/01/17 00:07:37;;;;;;;;;;;;;;;27.54;56.79;97347.05;624661;227;68795;-66
2022/01/17 00:10:05;;;;;;;;;;;;;;;27.54;56.22;97341.66;624657;227;68709;-66
2022/01/17 00:12:36;;;;;;;;;;;;;;;27.54;57.54;97348.96;624618;227;65039;-69
2022/01/17 00:15:09;;;;;;;;;;;;;;;27.52;56.74;97349.25;624621;226;68795;-69
2022/01/17 00:17:37;;;;;;;;;;;;;;;27.50;57.67;97348.78;624561;226;68685;-69
2022/01/17 00:20:10;;;;;;;;;;;;;;;27.49;57.36;97347.16;624530;226;65084;-69
2022/01/17 00:22:30;;;;;;;;;;;;;;;27.50;57.31;97348.78;624449;226;66454;-69
2022/01/17 00:24:57;;;;;;;;;;;;;;;27.46;59.06;97347.78;624664;227;66244;-69
2022/01/17 00:27:25;;;;;;;;;;;;;;;27.47;58.64;97345.88;624664;227;63125;-69
2022/01/17 00:29:52;;;;;;;;;;;;;;;27.44;58.25;97348.07;624707;227;66431;-69
2022/01/17 00:32:20;;;;;;;;;;;;;;;27.44;57.12;97342.67;624646;227;69011;-69
2022/01/17 00:34:47;;;;;;;;;;;;;;;27.43;55.92;97343.00;624688;227;65004;-69
2022/01/17 00:37:15;;;;;;;;;;;;;;;27.43;56.09;97343.78;624662;227;68879;-69
2022/01/17 00:39:42;;;;;;;;;;;;;;;27.43;57.89;97343.78;624665;227;68666;-69
2022/01/17 00:42:10;;;;;;;;;;;;;;;27.41;57.07;97340.59;624730;227;62877;-69
2022/01/17 00:44:39;;;;;;;;;;;;;;;27.40;57.64;97336.30;624709;227;68805;-69
2022/01/17 00:47:07;;;;;;;;;;;;;;;27.38;59.28;97345.80;624686;227;68804;-66
2022/01/17 00:49:35;;;;;;;;;;;;;;;27.38;58.84;97335.02;624686;227;65045;-66
2022/01/17 00:52:04;;;;;;;;;;;;;;;27.36;58.33;97337.21;624567;226;68503;-69
2022/01/17 00:54:31;;;;;;;;;;;;;;;27.37;58.43;97325.33;624663;227;66750;-69
2022/01/17 00:56:59;;;;;;;;;;;;;;;27.38;58.19;97327.70;624693;227;64992;-69
2022/01/17 00:59:27;;;;;;;;;;;;;;;27.36;58.34;97321.02;624647;227;66669;-69
2022/01/17 01:01:54;;;;;;;;;;;;;;;27.36;57.66;97315.63;624667;227;68585;-69
2022/01/17 01:04:23;;;;;;;;;;;;;;;27.33;57.36;97313.53;624585;226;41624;-69
2022/01/17 01:06:51;;;;;;;;;;;;;;;27.32;57.50;97309.25;624666;227;68714;-69
2022/01/17 01:09:18;;;;;;;;;;;;;;;27.32;58.01;97298.45;624726;227;68536;-69
2022/01/17 01:11:46;;;;;;;;;;;;;;;27.31;57.63;97294.97;624680;227;65145;-69
2022/01/17 01:14:13;;;;;;;;;;;;;;;27.30;58.06;97295.27;624670;227;68778;-66
2022/01/17 01:16:42;;;;;;;;;;;;;;;27.29;58.56;97280.19;624688;227;68684;-66
2022/01/17 01:19:27;;;;;;;;;;;;;;;27.26;57.49;97281.59;624627;227;64806;-66
2022/01/17 01:22:10;;;;;;;;;;;;;;;27.28;58.67;97279.36;624435;226;66510;-66
2022/01/17 01:29:55;;;;;;;;;;;;;;;27.23;57.90;97266.81;624684;227;66536;-65
2022/01/17 01:32:22;;;;;;;;;;;;;;;27.23;57.89;97261.41;624538;226;66592;-68
2022/01/17 01:34:51;;;;;;;;;;;;;;;27.21;57.87;97271.70;624594;226;63871;-68
2022/01/17 01:37:16;;;;;;;;;;;;;;;27.22;57.33;97256.31;624595;226;68784;-68
2022/01/17 01:39:45;;;;;;;;;;;;;;;27.22;57.78;97261.70;624691;227;68344;-68
2022/01/17 01:42:16;;;;;;;;;;;;;;;27.23;58.05;97258.72;624624;227;65054;-68
2022/01/17 01:44:42;;;;;;;;;;;;;;;27.18;57.18;97250.73;624610;226;68804;-68
2022/01/17 01:47:09;;;;;;;;;;;;;;;27.18;56.94;97239.16;624648;227;68992;-68
2022/01/17 01:49:37;;;;;;;;;;;;;;;27.17;56.87;97237.54;624664;227;62876;-69
2022/01/17 01:52:04;;;;;;;;;;;;;;;27.16;57.34;97241.33;625356;226;66658;-68
2022/01/17 01:54:32;;;;;;;;;;;;;;;27.15;58.09;97240.53;625763;226;68538;-68
2022/01/17 01:57:00;;;;;;;;;;;;;;;27.14;57.15;97246.22;625805;226;63824;-68
2022/01/17 01:59:27;;;;;;;;;;;;;;;27.13;57.30;97245.42;625792;226;66617;-68
2022/01/17 02:01:55;;;;;;;;;;;;;;;27.12;58.34;97256.51;621200;226;69699;-68
2022/01/17 02:04:23;;;;;;;;;;;;;;;27.13;56.96;97252.73;625819;226;65028;-68
2022/01/17 02:06:50;;;;;;;;;;;;;;;27.11;58.34;97252.23;625852;226;68416;-68
2022/01/17 02:09:18;;;;;;;;;;;;;;;27.10;56.90;97243.34;625781;226;68664;-68
2022/01/17 02:11:45;;;;;;;;;;;;;;;27.08;56.96;97248.23;625763;226;62900;-68
2022/01/17 02:14:13;;;;;;;;;;;;;;;27.08;57.47;97256.33;625801;226;66460;-68
2022/01/17 02:16:43;;;;;;;;;;;;;;;27.08;57.51;97248.23;625810;226;66593;-68
2022/01/17 02:19:09;;;;;;;;;;;;;;;27.08;58.62;97250.14;625843;225;61988;-68
2022/01/17 02:21:46;;;;;;;;;;;;;;;27.04;57.10;97249.14;625766;226;66648;-68
2022/01/17 02:24:20;;;;;;;;;;;;;;;27.05;57.99;97248.85;625807;226;68802;-68
2022/01/17 02:26:49;;;;;;;;;;;;;;;27.04;58.42;97249.14;625768;226;65125;-68
2022/01/17 02:29:16;;;;;;;;;;;;;;;27.02;58.08;97246.77;625810;226;66703;-68
2022/01/17 02:31:45;;;;;;;;;;;;;;;27.01;57.88;97250.58;625793;226;68707;-68
2022/01/17 02:34:13;;;;;;;;;;;;;;;27.01;58.47;97253.28;625780;226;65000;-68
2022/01/17 02:36:41;;;;;;;;;;;;;;;26.99;57.79;97258.17;625778;226;68752;-68
2022/01/17 02:39:08;;;;;;;;;;;;;;;26.99;57.78;97247.38;625780;226;66459;-68
2022/01/17 02:41:39;;;;;;;;;;;;;;;26.98;58.05;97251.16;625775;226;65028;-68
2022/01/17 02:44:06;;;;;;;;;;;;;;;26.97;57.48;97250.37;625801;226;68835;-68
2022/01/17 02:46:33;;;;;;;;;;;;;;;26.93;57.93;97238.61;625790;226;68335;-68
2022/01/17 02:49:02;;;;;;;;;;;;;;;26.92;59.82;97241.59;625779;226;64865;-68
2022/01/17 02:51:30;;;;;;;;;;;;;;;26.92;58.61;97246.99;625314;226;68847;-68
2022/01/17 02:53:57;;;;;;;;;;;;;;;26.91;60.23;97237.31;624669;227;68394;-68
2022/01/17 02:56:25;;;;;;;;;;;;;;;26.93;58.92;97248.61;624648;227;64999;-68
2022/01/17 02:58:53;;;;;;;;;;;;;;;26.90;58.49;97243.80;624679;227;68713;-68
2022/01/17 03:01:22;;;;;;;;;;;;;;;26.89;58.36;97236.81;624559;227;69034;-69
2022/01/17 03:03:49;;;;;;;;;;;;;;;26.88;59.02;97240.63;624643;227;62899;-68
2022/01/17 03:06:19;;;;;;;;;;;;;;;26.86;58.93;97248.21;624540;226;66730;-66
2022/01/17 03:08:46;;;;;;;;;;;;;;;26.87;58.56;97241.70;624634;227;66542;-66
2022/01/17 03:11:15;;;;;;;;;;;;;;;26.84;58.42;97253.10;624685;227;65030;-66
2022/01/17 03:13:43;;;;;;;;;;;;;;;26.83;58.71;97243.43;624620;227;66486;-66
2022/01/17 03:16:13;;;;;;;;;;;;;;;26.80;58.61;97250.22;624669;227;68699;-66
2022/01/17 03:18:42;;;;;;;;;;;;;;;26.80;59.22;97263.70;624669;227;62969;-66
2022/01/17 03:21:10;;;;;;;;;;;;;;;26.78;59.26;97250.52;624614;227;66289;-66
2022/01/17 03:23:38;;;;;;;;;;;;;;;26.77;58.49;97251.63;624672;227;66427;-66
2022/01/17 03:26:06;;;;;;;;;;;;;;;26.77;58.87;97257.02;624630;227;64878;-66
2022/01/17 03:28:34;;;;;;;;;;;;;;;26.76;57.70;97250.05;624633;227;68810;-66
2022/01/17 03:31:01;;;;;;;;;;;;;;;26.75;59.77;97259.21;624658;227;68772;-66
2022/01/17 03:33:29;;;;;;;;;;;;;;;26.73;59.81;97250.63;624659;227;65143;-66
2022/01/17 03:35:56;;;;;;;;;;;;;;;26.72;59.54;97262.52;624667;227;68779;-66
2022/01/17 03:38:25;;;;;;;;;;;;;;;26.72;59.46;97242.86;624662;227;68768;-66
2022/01/17 03:40:53;;;;;;;;;;;;;;;26.70;58.51;97253.14;624588;226;67423;-66
2022/01/17 03:43:21;;;;;;;;;;;;;;;26.69;60.13;97256.94;624718;227;68475;-66
2022/01/17 03:45:49;;;;;;;;;;;;;;;26.69;59.61;97240.77;624643;227;68513;-66
2022/01/17 03:48:18;;;;;;;;;;;;;;;26.69;61.06;97267.73;624668;227;64997;-66
2022/01/17 03:50:46;;;;;;;;;;;;;;;26.67;59.97;97241.05;624632;226;66226;-66
2022/01/17 03:53:13;;;;;;;;;;;;;;;26.66;59.13;97266.42;624622;227;68527;-65
2022/01/17 03:55:41;;;;;;;;;;;;;;;26.67;59.26;97254.53;624655;227;65099;-66
2022/01/17 03:58:08;;;;;;;;;;;;;;;26.64;57.83;97263.23;624678;227;68489;-66
2022/01/17 04:00:40;;;;;;;;;;;;;;;26.62;60.35;97251.94;624681;227;67216;-66
2022/01/17 04:03:08;;;;;;;;;;;;;;;26.61;58.03;97253.05;624642;227;62507;-65
2022/01/17 04:05:36;;;;;;;;;;;;;;;26.61;59.33;97269.23;624694;227;68499;-65
2022/01/17 04:08:03;;;;;;;;;;;;;;;26.61;59.18;97247.66;624635;227;68490;-65
2022/01/17 04:10:31;;;;;;;;;;;;;;;26.59;58.11;97259.84;624629;227;65051;-65
2022/01/17 04:13:04;;;;;;;;;;;;;;;26.59;56.96;97268.72;624629;227;68842;-65
2022/01/17 04:15:32;;;;;;;;;;;;;;;26.56;58.17;97264.73;624627;227;68811;-66
2022/01/17 04:18:00;;;;;;;;;;;;;;;26.54;58.84;97264.23;624693;227;65054;-67
2022/01/17 04:20:29;;;;;;;;;;;;;;;26.55;58.12;97265.05;624620;227;68593;-67
2022/01/17 04:22:58;;;;;;;;;;;;;;;26.52;59.90;97266.45;624587;227;68559;-67
2022/01/17 04:25:29;;;;;;;;;;;;;;;26.50;59.00;97271.30;624626;227;64899;-65
2022/01/17 04:27:57;;;;;;;;;;;;;;;26.51;58.05;97272.13;624614;227;68762;-64
2022/01/17 04:30:25;;;;;;;;;;;;;;;26.51;58.53;97274.82;624654;227;68656;-65
2022/01/17 04:32:52;;;;;;;;;;;;;;;26.48;59.04;97265.41;624696;227;62648;-64
2022/01/17 04:35:20;;;;;;;;;;;;;;;26.48;59.55;97275.39;624635;227;66262;-64
2022/01/17 04:37:50;;;;;;;;;;;;;;;26.47;58.28;97271.11;624619;227;66560;-64
2022/01/17 04:40:17;;;;;;;;;;;;;;;26.45;58.76;97271.41;624583;226;63003;-64
2022/01/17 04:42:47;;;;;;;;;;;;;;;26.44;58.62;97259.04;624623;227;66856;-64
2022/01/17 04:45:16;;;;;;;;;;;;;;;26.43;58.70;97268.20;624642;227;66619;-65
2022/01/17 04:47:45;;;;;;;;;;;;;;;26.43;57.85;97270.11;624615;227;63056;-65
2022/01/17 04:50:14;;;;;;;;;;;;;;;26.42;58.00;97268.52;624558;227;68798;-65
2022/01/17 04:52:42;;;;;;;;;;;;;;;26.42;58.84;97272.00;625609;226;68675;-65
2022/01/17 04:55:11;;;;;;;;;;;;;;;26.40;57.77;97284.18;625859;226;62957;-65
2022/01/17 04:57:39;;;;;;;;;;;;;;;26.40;59.60;97284.97;625811;226;68800;-66
2022/01/17 05:00:08;;;;;;;;;;;;;;;26.39;56.64;97290.68;625774;226;66487;-65
2022/01/17 05:02:36;;;;;;;;;;;;;;;26.37;58.04;97293.66;625791;226;65062;-65
2022/01/17 05:05:04;;;;;;;;;;;;;;;26.37;56.97;97282.09;625766;226;68930;-65
2022/01/17 05:07:33;;;;;;;;;;;;;;;26.37;58.26;97284.78;625844;226;68522;-65
2022/01/17 05:10:01;;;;;;;;;;;;;;;26.34;58.77;97286.97;625801;226;63092;-65
2022/01/17 05:12:29;;;;;;;;;;;;;;;26.33;58.73;97290.77;625755;226;66515;-68
2022/01/17 05:14:57;;;;;;;;;;;;;;;26.33;59.25;97284.59;625797;226;68583;-67
2022/01/17 05:17:39;;;;;;;;;;;;;;;26.30;58.94;97283.30;625822;226;62967;-67
2022/01/17 05:19:57;;;;;;;;;;;;;;;26.30;57.61;97290.55;625384;226;68919;-67
2022/01/17 05:22:31;;;;;;;;;;;;;;;26.29;60.37;97286.27;625852;226;69153;-68
2022/01/17 05:24:59;;;;;;;;;;;;;;;26.28;59.59;97276.60;625764;226;64977;-68
2022/01/17 05:27:27;;;;;;;;;;;;;;;26.26;59.82;97271.50;625791;226;68716;-69
2022/01/17 05:29:54;;;;;;;;;;;;;;;26.27;58.38;97278.51;625753;226;69195;-69
2022/01/17 05:32:22;;;;;;;;;;;;;;;26.26;59.66;97258.03;625813;226;65184;-68
2022/01/17 05:34:50;;;;;;;;;;;;;;;26.23;59.50;97255.94;625851;226;68771;-68
2022/01/17 05:37:18;;;;;;;;;;;;;;;26.22;57.81;97256.23;625790;226;68501;-69
2022/01/17 05:39:45;;;;;;;;;;;;;;;26.20;60.50;97253.84;625800;226;62757;-68
2022/01/17 05:42:18;;;;;;;;;;;;;;;26.21;60.01;97265.41;625777;226;66661;-68
2022/01/17 05:44:46;;;;;;;;;;;;;;;26.21;60.65;97265.41;625746;225;66454;-68
2022/01/17 05:47:13;;;;;;;;;;;;;;;26.18;61.38;97260.62;625858;226;63029;-67
2022/01/17 05:49:41;;;;;;;;;;;;;;;26.16;58.86;97252.05;625798;226;68521;-68
2022/01/17 05:52:10;;;;;;;;;;;;;;;26.18;60.83;97247.16;624970;226;66265;-68
2022/01/17 05:54:38;;;;;;;;;;;;;;;26.15;58.28;97245.86;624640;227;62936;-67
2022/01/17 05:57:05;;;;;;;;;;;;;;;26.16;60.62;97252.05;624660;227;66872;-68
2022/01/17 05:59:33;;;;;;;;;;;;;;;26.13;59.86;97270.39;624668;227;66742;-68
2022/01/17 06:02:00;;;;;;;;;;;;;;;26.12;59.83;97268.80;624696;227;62817;-68
2022/01/17 06:04:28;;;;;;;;;;;;;;;26.10;60.42;97267.50;624642;227;68955;-68
2022/01/17 06:06:55;;;;;;;;;;;;;;;26.10;60.83;97278.28;624691;227;68665;-68
2022/01/17 06:09:26;;;;;;;;;;;;;;;26.11;62.25;97279.89;624710;227;65882;-68
2022/01/17 06:11:54;;;;;;;;;;;;;;;26.12;60.65;97281.48;621266;227;66573;-67
2022/01/17 06:14:22;;;;;;;;;;;;;;;26.13;61.12;97288.45;624701;227;66594;-67
2022/01/17 06:16:52;;;;;;;;;;;;;;;26.12;61.67;97294.95;624734;227;48947;-70
2022/01/17 06:19:20;;;;;;;;;;;;;;;26.09;60.57;97293.64;624687;227;66410;-68
2022/01/17 06:21:47;;;;;;;;;;;;;;;26.11;61.07;97294.16;624678;227;66428;-68
2022/01/17 06:24:15;;;;;;;;;;;;;;;26.11;61.97;97291.46;624711;227;62662;-68
2022/01/17 06:26:44;;;;;;;;;;;;;;;26.12;62.50;97292.25;624698;227;67506;-67
2022/01/17 06:29:12;;;;;;;;;;;;;;;26.08;61.78;97283.98;624689;227;68686;-68
2022/01/17 06:31:40;;;;;;;;;;;;;;;26.09;60.40;97292.85;624675;227;63116;-68
2022/01/17 06:34:13;;;;;;;;;;;;;;;26.11;62.18;97293.36;624702;227;68854;-68
2022/01/17 06:36:41;;;;;;;;;;;;;;;26.11;60.24;97290.66;624474;226;68351;-68
2022/01/17 06:39:07;;;;;;;;;;;;;;;26.10;61.15;97294.44;624610;226;64823;-65
2022/01/17 06:41:35;;;;;;;;;;;;;;;26.10;62.14;97292.53;624709;227;68693;-65
2022/01/17 06:44:02;;;;;;;;;;;;;;;26.11;60.19;97282.59;624639;227;69013;-65
2022/01/17 06:46:30;;;;;;;;;;;;;;;26.09;62.13;97293.64;624665;227;64981;-64
2022/01/17 06:48:58;;;;;;;;;;;;;;;26.10;62.21;97297.13;624720;227;66759;-65
2022/01/17 06:51:26;;;;;;;;;;;;;;;26.10;57.86;97286.36;625034;226;68635;-65
2022/01/17 06:53:54;;;;;;;;;;;;;;;26.14;60.85;97303.53;625742;226;65023;-64
2022/01/17 06:56:22;;;;;;;;;;;;;;;26.11;60.38;97306.83;625650;226;68642;-64
2022/01/17 06:58:49;;;;;;;;;;;;;;;26.10;60.66;97297.13;625738;226;66581;-65
2022/01/17 07:01:18;;;;;;;;;;;;;;;26.08;56.54;97302.83;625854;226;62754;-63
2022/01/17 07:03:46;;;;;;;;;;;;;;;26.09;56.92;97295.55;625800;226;66280;-63
2022/01/17 07:06:13;;;;;;;;;;;;;;;26.15;59.73;97304.33;625832;226;68528;-64
2022/01/17 07:08:41;;;;;;;;;;;;;;;26.17;59.59;97294.86;625798;226;62912;-64
2022/01/17 07:11:09;;;;;;;;;;;;;;;26.17;59.87;97300.24;625757;226;66950;-66
2022/01/17 07:13:37;;;;;;;;;;;;;;;26.17;58.00;97297.55;625826;226;68817;-63
2022/01/17 07:16:05;;;;;;;;;;;;;;;26.17;61.26;97285.98;625757;226;63785;-62
2022/01/17 07:18:32;;;;;;;;;;;;;;;26.18;61.83;97284.88;625797;226;68558;-62
2022/01/17 07:21:00;;;;;;;;;;;;;;;26.20;62.29;97267.32;625727;226;66455;-62
2022/01/17 07:23:27;;;;;;;;;;;;;;;26.18;60.19;97266.81;625771;226;62855;-64
2022/01/17 07:25:55;;;;;;;;;;;;;;;26.17;58.18;97269.81;625801;226;68751;-64
2022/01/17 07:28:22;;;;;;;;;;;;;;;26.22;60.65;97275.91;625793;226;68659;-65
2022/01/17 07:30:50;;;;;;;;;;;;;;;26.21;61.05;97271.59;624837;226;62863;-65
2022/01/17 07:33:18;;;;;;;;;;;;;;;26.23;61.54;97268.62;625749;226;68702;-65
2022/01/17 07:35:45;;;;;;;;;;;;;;;26.28;60.74;97276.60;625808;226;66554;-67
2022/01/17 07:38:13;;;;;;;;;;;;;;;26.32;61.03;97261.42;625667;226;65080;-65
2022/01/17 07:40:43;;;;;;;;;;;;;;;26.34;61.56;97262.72;625431;226;68605;-62
2022/01/17 07:43:11;;;;;;;;;;;;;;;26.35;64.64;97266.20;625776;226;68825;-66
2022/01/17 07:45:46;;;;;;;;;;;;;;;26.38;63.25;97259.42;625731;226;62855;-67
2022/01/17 07:48:22;;;;;;;;;;;;;;;26.37;64.55;97247.06;624485;226;68905;-63
2022/01/17 07:50:38;;;;;;;;;;;;;;;26.37;61.18;97247.86;624429;226;65958;-68
2022/01/17 07:53:05;;;;;;;;;;;;;;;26.43;63.07;97262.02;624362;227;64990;-68
2022/01/17 07:55:33;;;;;;;;;;;;;;;26.42;62.17;97271.22;624513;227;68533;-65
2022/01/17 07:58:03;;;;;;;;;;;;;;;26.46;61.30;97304.53;624396;227;50672;-65
2022/01/17 08:00:30;;;;;;;;;;;;;;;26.52;59.73;97314.96;623604;227;65042;-64
2022/01/17 08:02:58;;;;;;;;;;;;;;;26.57;59.57;97297.87;617352;226;68838;-65
2022/01/17 08:05:26;;;;;;;;;;;;;;;26.63;58.31;97298.56;617471;229;65991;-63
2022/01/17 08:07:53;;;;;;;;;;;;;;;26.67;55.48;97291.48;617559;229;65002;-65
2022/01/17 08:10:21;;;;;;;;;;;;;;;26.72;58.83;97277.91;617532;229;66250;-64
2022/01/17 08:12:51;;;;;;;;;;;;;;;26.75;55.77;97256.52;617478;229;66420;-65
2022/01/17 08:15:20;;;;;;;;;;;;;;;26.80;57.44;97239.44;617505;229;65113;-65
2022/01/17 08:17:50;;;;;;;;;;;;;;;26.83;57.35;97244.22;616903;229;48506;-66
2022/01/17 08:20:17;;;;;;;;;;;;;;;26.87;56.63;97247.10;617342;229;66215;-65
2022/01/17 08:22:45;;;;;;;;;;;;;;;26.90;59.12;97287.77;617513;229;62755;-64
2022/01/17 08:25:13;;;;;;;;;;;;;;;26.94;55.46;97331.89;617511;229;69078;-66
2022/01/17 08:27:40;;;;;;;;;;;;;;;26.98;57.03;97350.95;617506;229;68733;-65
2022/01/17 08:30:08;;;;;;;;;;;;;;;27.01;55.17;97366.56;617504;229;63881;-69
2022/01/17 08:32:38;;;;;;;;;;;;;;;27.05;56.46;97374.84;617455;228;49520;-69
2022/01/17 08:35:05;;;;;;;;;;;;;;;27.07;55.78;97357.25;617425;229;68664;-68
2022/01/17 08:37:33;;;;;;;;;;;;;;;27.10;57.25;97304.59;617401;229;64937;-68
2022/01/17 08:40:01;;;;;;;;;;;;;;;27.14;55.14;97309.06;617608;229;68775;-67
2022/01/17 08:42:29;;;;;;;;;;;;;;;27.18;55.27;97320.09;617483;229;66412;-67
2022/01/17 08:44:57;;;;;;;;;;;;;;;27.20;54.80;97291.70;617508;229;64670;-67
2022/01/17 08:47:24;;;;;;;;;;;;;;;27.22;54.68;97289.48;617551;229;68880;-67
2022/01/17 08:49:52;;;;;;;;;;;;;;;27.25;54.20;97271.88;617396;227;68494;-67
2022/01/17 08:52:20;;;;;;;;;;;;;;;27.27;55.17;97225.72;618133;229;64991;-67
2022/01/17 08:54:47;;;;;;;;;;;;;;;27.30;54.30;97235.89;618621;229;66704;-67
2022/01/17 08:57:17;;;;;;;;;;;;;;;27.33;54.51;97259.56;618608;229;68764;-68
2022/01/17 08:59:45;;;;;;;;;;;;;;;27.34;53.71;97245.78;618667;229;62780;-70
2022/01/17 09:02:14;;;;;;;;;;;;;;;27.33;53.53;97200.98;618632;229;68788;-68
2022/01/17 09:04:41;;;;;;;;;;;;;;;27.36;55.13;97188.78;618680;229;69372;-69
2022/01/17 09:07:10;;;;;;;;;;;;;;;27.32;53.45;97209.41;618669;229;65165;-69
2022/01/17 09:09:38;;;;;;;;;;;;;;;27.33;53.22;97203.69;618573;229;68877;-67
2022/01/17 09:12:07;;;;;;;;;;;;;;;27.36;53.12;97194.18;618590;229;68871;-68
2022/01/17 09:14:35;;;;;;;;;;;;;;;27.37;53.02;97177.70;618624;229;65218;-68
2022/01/17 09:17:03;;;;;;;;;;;;;;;27.38;53.24;97186.58;618585;229;68683;-70
2022/01/17 09:19:31;;;;;;;;;;;;;;;27.41;53.20;97180.56;618634;229;68599;-70
2022/01/17 09:22:02;;;;;;;;;;;;;;;27.43;53.78;97181.06;618644;228;47239;-68
2022/01/17 09:24:32;;;;;;;;;;;;;;;27.44;53.51;97174.55;618527;227;68828;-65
2022/01/17 09:26:59;;;;;;;;;;;;;;;27.48;53.45;97201.73;618669;229;66458;-70
2022/01/17 09:29:27;;;;;;;;;;;;;;;27.48;53.39;97210.63;618659;229;62888;-71
2022/01/17 09:31:54;;;;;;;;;;;;;;;27.50;53.46;97213.82;618600;229;66185;-69
2022/01/17 09:34:22;;;;;;;;;;;;;;;27.51;53.49;97220.80;618649;229;68607;-68
2022/01/17 09:36:49;;;;;;;;;;;;;;;27.54;53.53;97208.59;618645;229;65107;-67
2022/01/17 09:39:17;;;;;;;;;;;;;;;27.54;53.34;97220.17;618583;229;69705;-68
2022/01/17 09:41:44;;;;;;;;;;;;;;;27.57;53.40;97213.37;618670;229;68657;-63
2022/01/17 09:44:12;;;;;;;;;;;;;;;27.59;53.50;97221.95;618678;229;62923;-70
2022/01/17 09:46:45;;;;;;;;;;;;;;;27.60;52.88;97208.13;618570;229;66408;-67
2022/01/17 09:49:23;;;;;;;;;;;;;;;27.59;53.20;97216.56;618603;228;69356;-68
2022/01/17 09:54:28;;;;;;;;;;;;;;;27.58;55.97;97215.77;617533;229;68734;-68
2022/01/17 09:56:56;;;;;;;;;;;;;;;27.60;54.06;97218.94;617513;229;68651;-69
2022/01/17 09:59:23;;;;;;;;;;;;;;;27.58;55.58;97220.34;617498;229;64927;-69
2022/01/17 10:01:52;;;;;;;;;;;;;;;27.59;54.14;97238.95;617502;229;68772;-69
2022/01/17 10:04:19;;;;;;;;;;;;;;;27.61;53.98;97241.33;617458;229;66518;-68
2022/01/17 10:06:54;;;;;;;;;;;;;;;27.59;55.44;97254.36;617525;229;65113;-67
2022/01/17 10:09:24;;;;;;;;;;;;;;;27.55;55.04;97253.36;617534;229;68851;-66
2022/01/17 10:12:09;;;;;;;;;;;;;;;27.57;54.99;97261.95;617568;229;68568;-69
2022/01/17 10:14:44;;;;;;;;;;;;;;;27.52;55.87;97265.57;617388;229;65135;-69
2022/01/17 10:17:14;;;;;;;;;;;;;;;27.50;55.52;97270.50;617547;229;68775;-66
2022/01/17 10:19:42;;;;;;;;;;;;;;;27.49;54.52;97263.48;617337;228;66182;-63
2022/01/17 10:22:15;;;;;;;;;;;;;;;27.48;53.85;97258.42;617493;229;64959;-66
2022/01/17 10:24:57;;;;;;;;;;;;;;;27.49;53.29;97255.39;617468;228;69558;-66
2022/01/17 10:27:39;;;;;;;;;;;;;;;27.49;53.91;97254.59;617059;228;68928;-68
2022/01/17 10:35:26;;;;;;;;;;;;;;;27.54;55.89;97249.08;617427;229;69612;-66
2022/01/17 10:38:04;;;;;;;;;;;;;;;27.56;54.21;97241.48;617536;229;65063;-67
2022/01/17 10:40:33;;;;;;;;;;;;;;;27.56;55.02;97238.78;617474;229;66440;-66
2022/01/17 10:43:02;;;;;;;;;;;;;;;27.54;54.46;97241.77;617084;228;66763;-67
2022/01/17 10:45:33;;;;;;;;;;;;;;;27.56;54.63;97234.17;617590;229;65052;-70
2022/01/17 10:48:01;;;;;;;;;;;;;;;27.57;54.30;97218.77;617439;229;70763;-69
2022/01/17 10:50:30;;;;;;;;;;;;;;;27.56;54.96;97233.38;617367;229;68537;-70
2022/01/17 10:53:02;;;;;;;;;;;;;;;27.53;54.92;97226.69;617365;228;63013;-68
2022/01/17 10:55:34;;;;;;;;;;;;;;;27.52;54.42;97216.98;617508;229;69013;-68
2022/01/17 10:58:03;;;;;;;;;;;;;;;27.50;54.83;97227.31;617441;229;68606;-67
2022/01/17 11:00:32;;;;;;;;;;;;;;;27.52;54.70;97233.18;617422;229;65137;-70
2022/01/17 11:03:01;;;;;;;;;;;;;;;27.51;54.46;97215.40;617402;229;68792;-69
2022/01/17 11:05:28;;;;;;;;;;;;;;;27.50;54.61;97216.52;617429;229;68695;-67
2022/01/17 11:08:00;;;;;;;;;;;;;;;27.48;54.08;97209.83;617517;229;65050;-67
2022/01/17 11:10:27;;;;;;;;;;;;;;;27.48;54.97;97215.23;617451;228;68833;-66
2022/01/17 11:12:56;;;;;;;;;;;;;;;27.47;53.86;97211.71;617361;229;66577;-66
2022/01/17 11:15:25;;;;;;;;;;;;;;;27.48;53.77;97213.33;617462;229;65191;-67
2022/01/17 11:18:01;;;;;;;;;;;;;;;27.45;55.17;97211.24;617463;229;66432;-68
2022/01/17 11:20:23;;;;;;;;;;;;;;;27.47;54.88;97198.21;617139;228;68364;-67
2022/01/17 11:22:54;;;;;;;;;;;;;;;27.49;55.53;97195.22;617427;229;65149;-65
2022/01/17 11:25:31;;;;;;;;;;;;;;;27.46;53.18;97191.23;617358;229;68782;-66
2022/01/17 11:28:03;;;;;;;;;;;;;;;27.48;54.08;97191.73;617370;228;45649;-66
2022/01/17 11:30:35;;;;;;;;;;;;;;;27.49;53.92;97179.81;617486;228;44993;-66
2022/01/17 11:33:10;;;;;;;;;;;;;;;27.48;54.61;97182.84;617501;229;49807;-66
2022/01/17 11:35:42;;;;;;;;;;;;;;;27.50;54.59;97181.43;617312;229;66511;-66
2022/01/17 11:38:15;;;;;;;;;;;;;;;27.49;54.77;97174.42;617538;229;45156;-66
2022/01/17 11:40:44;;;;;;;;;;;;;;;27.51;53.95;97177.61;617405;229;68585;-66
2022/01/17 11:43:34;;;;;;;;;;;;;;;27.49;54.23;97174.42;617343;229;68757;-66
2022/01/17 11:46:04;;;;;;;;;;;;;;;27.48;54.92;97175.53;617120;229;65310;-67
2022/01/17 11:48:34;;;;;;;;;;;;;;;27.48;54.21;97188.23;613897;229;68575;-66
2022/01/17 11:51:15;;;;;;;;;;;;;;;27.49;54.31;97190.61;617411;227;68476;-67
2022/01/17 11:53:50;;;;;;;;;;;;;;;27.52;55.10;97183.80;617466;229;62667;-68
2022/01/17 11:56:19;;;;;;;;;;;;;;;27.50;54.87;97165.23;617529;229;66255;-68
2022/01/17 11:58:51;;;;;;;;;;;;;;;27.49;54.98;97149.33;616898;229;45816;-70
2022/01/17 12:01:23;;;;;;;;;;;;;;;27.52;55.22;97154.90;614275;229;46465;-68
2022/01/17 12:03:53;;;;;;;;;;;;;;;27.52;54.75;97143.31;617406;229;68228;-66
2022/01/17 12:06:24;;;;;;;;;;;;;;;27.54;54.24;97139.20;617525;228;51973;-68
2022/01/17 12:09:12;;;;;;;;;;;;;;;27.56;55.38;97141.59;617549;229;44600;-67
2022/01/17 12:11:42;;;;;;;;;;;;;;;27.56;53.87;97142.39;617505;229;66651;-67
2022/01/17 12:14:25;;;;;;;;;;;;;;;27.56;54.70;97147.00;617608;229;68417;-66
2022/01/17 12:16:57;;;;;;;;;;;;;;;27.58;53.92;97155.56;621687;227;44761;-61
2022/01/17 12:19:28;;;;;;;;;;;;;;;27.54;54.54;97144.59;624590;226;68541;-65
2022/01/17 12:22:07;;;;;;;;;;;;;;;27.45;50.59;97135.67;624640;227;49518;-64
2022/01/17 12:24:39;;;;;;;;;;;;;;;27.48;53.68;97129.65;624530;227;62721;-63
2022/01/17 12:27:09;;;;;;;;;;;;;;;27.51;51.05;97125.53;624441;226;66626;-66
2022/01/17 12:29:38;;;;;;;;;;;;;;;27.55;52.10;97135.37;624560;227;68719;-66
2022/01/17 12:32:06;;;;;;;;;;;;;;;27.55;52.67;97113.78;624320;227;62885;-67
2022/01/17 12:34:43;;;;;;;;;;;;;;;27.56;52.96;97115.39;624560;227;68834;-66
2022/01/17 12:37:28;;;;;;;;;;;;;;;27.59;53.63;97100.48;624540;227;66702;-69
2022/01/17 12:39:57;;;;;;;;;;;;;;;27.60;53.09;97075.06;624321;226;62667;-68
2022/01/17 12:42:24;;;;;;;;;;;;;;;27.59;53.43;97103.97;624251;226;66067;-67
2022/01/17 12:44:53;;;;;;;;;;;;;;;27.63;53.54;97096.83;624594;227;66743;-68
2022/01/17 12:47:22;;;;;;;;;;;;;;;27.64;53.78;97068.73;624416;226;62757;-66
2022/01/17 12:49:50;;;;;;;;;;;;;;;27.67;53.54;97067.31;624616;227;68839;-68
2022/01/17 12:52:17;;;;;;;;;;;;;;;27.67;54.24;97078.91;624596;226;66430;-66
2022/01/17 12:54:46;;;;;;;;;;;;;;;27.68;53.79;97079.70;624458;227;62745;-60
2022/01/17 12:57:13;;;;;;;;;;;;;;;27.70;55.51;97065.90;624589;227;68580;-69
2022/01/17 12:59:41;;;;;;;;;;;;;;;27.67;54.94;97049.20;624523;227;69027;-67
2022/01/17 13:02:10;;;;;;;;;;;;;;;27.67;54.38;97057.30;624609;227;65059;-67
2022/01/17 13:04:39;;;;;;;;;;;;;;;27.70;54.65;97044.30;624507;227;69776;-67
2022/01/17 13:07:07;;;;;;;;;;;;;;;27.74;54.50;97050.64;624620;227;68680;-67
2022/01/17 13:09:36;;;;;;;;;;;;;;;27.72;54.12;97048.27;624576;227;65091;-67